createdAt,value
2022-12-03T00:01:10.443Z,100.00
2022-12-03T00:04:13.357Z,100.00
2022-12-03T00:07:16.449Z,100.00
2022-12-03T00:10:19.463Z,100.00
2022-12-03T00:13:21.915Z,100.00
2022-12-03T00:16:24.934Z,100.00
2022-12-03T00:19:27.689Z,100.00
2022-12-03T00:22:31.076Z,100.00
2022-12-03T00:25:33.621Z,100.00
2022-12-03T00:28:36.570Z,100.00
2022-12-03T00:31:45.486Z,100.00
2022-12-03T00:34:49.809Z,100.00
2022-12-03T00:37:52.423Z,100.00
2022-12-03T00:40:55.234Z,100.00
2022-12-03T00:43:59.978Z,100.00
2022-12-03T00:47:02.810Z,100.00
2022-12-03T00:50:06.144Z,100.00
2022-12-03T00:53:09.113Z,100.00
2022-12-03T00:56:11.912Z,100.00
2022-12-03T00:59:14.983Z,100.00
2022-12-03T01:02:17.678Z,100.00
2022-12-03T01:05:20.894Z,100.00
2022-12-03T01:08:23.456Z,100.00
2022-12-03T01:11:38.366Z,100.00
2022-12-03T01:14:41.062Z,100.00
2022-12-03T01:17:46.124Z,100.00
2022-12-03T01:20:48.731Z,100.00
2022-12-03T01:23:52.817Z,100.00
2022-12-03T01:26:56.659Z,100.00
2022-12-03T01:29:59.588Z,100.00
2022-12-03T01:33:02.253Z,100.00
2022-12-03T01:36:05.327Z,100.00
2022-12-03T01:39:07.980Z,100.00
2022-12-03T01:42:24.111Z,100.00
2022-12-03T01:45:26.635Z,100.00
2022-12-03T01:48:41.655Z,100.00
2022-12-03T01:51:45.115Z,100.00
2022-12-03T01:54:54.962Z,100.00
2022-12-03T01:58:00.603Z,100.00
2022-12-03T02:01:13.295Z,100.00
2022-12-03T02:04:19.642Z,100.00
2022-12-03T02:07:31.373Z,100.00
2022-12-03T02:10:37.755Z,100.00
2022-12-03T02:13:41.176Z,100.00
2022-12-03T02:16:45.107Z,100.00
2022-12-03T02:19:48.835Z,100.00
2022-12-03T02:23:17.688Z,100.00
2022-12-03T02:26:20.952Z,100.00
2022-12-03T02:29:24.153Z,100.00
2022-12-03T02:32:27.141Z,100.00
2022-12-03T02:35:35.166Z,100.00
2022-12-03T02:38:38.532Z,100.00
2022-12-03T02:41:59.612Z,100.00
2022-12-03T02:45:14.239Z,100.00
2022-12-03T02:48:25.984Z,100.00
2022-12-03T02:51:30.870Z,100.00
2022-12-03T02:54:33.892Z,100.00
2022-12-03T02:57:39.078Z,100.00
2022-12-03T03:00:43.390Z,100.00
2022-12-03T03:03:48.129Z,100.00
2022-12-03T03:06:52.045Z,100.00
2022-12-03T03:09:55.838Z,100.00
2022-12-03T03:12:58.621Z,100.00
2022-12-03T03:16:06.479Z,100.00
2022-12-03T03:19:09.499Z,100.00
2022-12-03T03:22:19.061Z,100.00
2022-12-03T03:25:22.530Z,100.00
2022-12-03T03:28:26.981Z,100.00
2022-12-03T03:31:29.568Z,100.00
2022-12-03T03:34:33.233Z,100.00
2022-12-03T03:37:36.678Z,100.00
2022-12-03T03:40:40.397Z,100.00
2022-12-03T03:43:45.686Z,100.00
2022-12-03T03:46:48.878Z,100.00
2022-12-03T03:49:51.652Z,100.00
2022-12-03T03:52:55.990Z,100.00
2022-12-03T03:55:58.786Z,100.00
2022-12-03T03:59:03.070Z,100.00
2022-12-03T04:02:05.721Z,100.00
2022-12-03T04:05:16.792Z,100.00
2022-12-03T04:08:19.614Z,100.00
2022-12-03T04:11:40.944Z,100.00
2022-12-03T04:14:44.835Z,100.00
2022-12-03T04:18:07.634Z,100.00
2022-12-03T04:21:34.469Z,100.00
2022-12-03T04:24:37.406Z,100.00
2022-12-03T04:27:58.366Z,100.00
2022-12-03T04:31:21.236Z,100.00
2022-12-03T04:34:44.920Z,100.00
2022-12-03T04:37:47.689Z,100.00
2022-12-03T04:41:00.849Z,100.00
2022-12-03T04:44:22.602Z,100.00
2022-12-03T04:47:25.120Z,100.00
2022-12-03T04:50:28.032Z,100.00
2022-12-03T04:53:30.493Z,100.00
2022-12-03T04:56:33.366Z,100.00
2022-12-03T04:59:37.323Z,100.00
2022-12-03T05:02:40.661Z,100.00
2022-12-03T05:05:43.263Z,100.00
2022-12-03T05:08:46.622Z,100.00
2022-12-03T05:11:49.244Z,100.00
2022-12-03T05:14:52.315Z,100.00
2022-12-03T05:17:55.118Z,100.00
2022-12-03T05:20:58.110Z,100.00
2022-12-03T05:24:00.945Z,100.00
2022-12-03T05:27:03.892Z,100.00
2022-12-03T05:30:07.191Z,100.00
2022-12-03T05:33:11.282Z,100.00
2022-12-03T05:36:14.169Z,100.00
2022-12-03T05:39:17.011Z,100.00
2022-12-03T05:42:38.422Z,100.00
2022-12-03T05:45:43.198Z,100.00
2022-12-03T05:48:48.369Z,100.00
2022-12-03T05:51:55.212Z,100.00
2022-12-03T05:55:04.590Z,100.00
2022-12-03T05:58:07.762Z,100.00
2022-12-03T06:01:10.222Z,100.00
2022-12-03T06:04:15.479Z,100.00
2022-12-03T06:07:18.077Z,100.00
2022-12-03T06:10:23.476Z,100.00
2022-12-03T06:13:29.224Z,100.00
2022-12-03T06:16:32.235Z,100.00
2022-12-03T06:19:36.216Z,100.00
2022-12-03T06:22:39.161Z,100.00
2022-12-03T06:25:41.613Z,100.00
2022-12-03T06:28:47.690Z,100.00
2022-12-03T06:31:50.242Z,100.00
2022-12-03T06:34:53.376Z,100.00
2022-12-03T06:37:56.167Z,100.00
2022-12-03T06:40:59.320Z,100.00
2022-12-03T06:44:02.200Z,100.00
2022-12-03T06:47:05.032Z,100.00
2022-12-03T06:50:08.912Z,100.00
2022-12-03T06:53:11.789Z,100.00
2022-12-03T06:56:14.411Z,100.00
2022-12-03T06:59:18.521Z,100.00
2022-12-03T07:02:24.675Z,100.00
2022-12-03T07:05:28.752Z,100.00
2022-12-03T07:08:31.542Z,100.00
2022-12-03T07:11:40.553Z,100.00
2022-12-03T07:14:43.484Z,100.00
2022-12-03T07:17:46.650Z,100.00
2022-12-03T07:20:51.154Z,100.00
2022-12-03T07:23:55.627Z,100.00
2022-12-03T07:26:59.216Z,100.00
2022-12-03T07:30:02.452Z,100.00
2022-12-03T07:33:05.192Z,100.00
2022-12-03T07:36:09.283Z,100.00
2022-12-03T07:39:11.874Z,100.00
2022-12-03T07:42:14.951Z,100.00
2022-12-03T07:45:17.735Z,100.00
2022-12-03T07:48:20.753Z,100.00
2022-12-03T07:51:28.976Z,100.00
2022-12-03T07:54:37.104Z,100.00
2022-12-03T07:57:39.745Z,100.00
2022-12-03T08:00:42.707Z,100.00
2022-12-03T08:03:45.767Z,100.00
2022-12-03T08:06:48.930Z,100.00
2022-12-03T08:09:52.008Z,100.00
2022-12-03T08:12:59.190Z,100.00
2022-12-03T08:16:13.879Z,100.00
2022-12-03T08:19:18.033Z,99.42
2022-12-03T08:22:22.723Z,95.74
2022-12-03T08:25:28.875Z,91.48
2022-12-03T08:28:31.932Z,91.85
2022-12-03T08:31:34.969Z,94.88
2022-12-03T08:34:41.421Z,97.26
2022-12-03T08:37:43.923Z,95.89
2022-12-03T08:40:48.948Z,91.70
2022-12-03T08:43:51.787Z,91.03
2022-12-03T08:47:24.472Z,95.52
2022-12-03T08:50:27.292Z,92.63
2022-12-03T08:53:50.910Z,93.15
2022-12-03T08:56:53.891Z,94.60
2022-12-03T09:00:12.612Z,96.33
2022-12-03T09:03:19.025Z,90.21
2022-12-03T09:06:22.964Z,92.11
2022-12-03T09:09:26.369Z,87.78
2022-12-03T09:12:29.170Z,85.82
2022-12-03T09:15:31.701Z,81.20
2022-12-03T09:18:34.905Z,77.74
2022-12-03T09:21:37.939Z,72.44
2022-12-03T09:24:41.217Z,69.99
2022-12-03T09:27:43.860Z,72.58
2022-12-03T09:30:47.050Z,73.84
2022-12-03T09:33:51.981Z,72.92
2022-12-03T09:36:54.741Z,70.33
2022-12-03T09:39:58.590Z,73.62
2022-12-03T09:43:01.583Z,73.83
2022-12-03T09:46:05.688Z,74.43
2022-12-03T09:49:15.801Z,73.88
2022-12-03T09:52:26.128Z,76.29
2022-12-03T09:55:29.606Z,74.99
2022-12-03T09:58:35.045Z,72.25
2022-12-03T10:01:38.594Z,74.59
2022-12-03T10:04:41.577Z,68.85
2022-12-03T10:07:44.477Z,66.54
2022-12-03T10:10:51.965Z,70.05
2022-12-03T10:13:56.694Z,67.75
2022-12-03T10:17:00.176Z,69.57
2022-12-03T10:20:02.869Z,67.75
2022-12-03T10:23:08.159Z,70.84
2022-12-03T10:26:10.969Z,64.39
2022-12-03T10:29:18.571Z,64.39
2022-12-03T10:32:25.857Z,59.99
2022-12-03T10:35:41.230Z,59.24
2022-12-03T10:38:44.371Z,65.58
2022-12-03T10:41:47.766Z,61.92
2022-12-03T10:45:06.322Z,62.63
2022-12-03T10:48:21.100Z,60.33
2022-12-03T10:51:24.025Z,55.70
2022-12-03T10:54:28.465Z,59.37
2022-12-03T10:57:31.223Z,57.76
2022-12-03T11:00:35.200Z,63.83
2022-12-03T11:03:37.815Z,71.73
2022-12-03T11:06:41.237Z,72.76
2022-12-03T11:09:46.554Z,75.27
2022-12-03T11:13:27.958Z,72.91
2022-12-03T11:16:42.610Z,67.80
2022-12-03T11:19:47.850Z,63.94
2022-12-03T11:22:55.228Z,66.59
2022-12-03T11:25:58.143Z,65.08
2022-12-03T11:29:00.722Z,63.81
2022-12-03T11:32:05.684Z,68.33
2022-12-03T11:35:24.191Z,65.17
2022-12-03T11:38:47.343Z,62.96
2022-12-03T11:42:27.327Z,66.05
2022-12-03T11:45:33.645Z,64.38
2022-12-03T11:48:45.067Z,65.43
2022-12-03T11:51:48.939Z,67.69
2022-12-03T11:55:02.856Z,68.40
2022-12-03T11:58:27.323Z,68.13
2022-12-03T12:01:41.280Z,73.85
2022-12-03T12:04:47.128Z,71.63
2022-12-03T12:07:50.324Z,71.84
2022-12-03T12:10:56.620Z,71.93
2022-12-03T12:14:04.800Z,68.25
2022-12-03T12:17:29.431Z,68.30
2022-12-03T12:20:32.072Z,67.77
2022-12-03T12:23:36.367Z,66.94
2022-12-03T12:26:38.771Z,70.80
2022-12-03T12:29:43.622Z,69.24
2022-12-03T12:32:47.633Z,71.89
2022-12-03T12:35:51.323Z,75.58
2022-12-03T12:38:53.923Z,75.27
2022-12-03T12:41:57.679Z,78.50
2022-12-03T12:45:26.086Z,77.76
2022-12-03T12:48:35.245Z,79.22
2022-12-03T12:51:44.060Z,77.75
2022-12-03T12:54:47.133Z,78.48
2022-12-03T12:57:49.937Z,79.88
2022-12-03T13:01:07.977Z,81.04
2022-12-03T13:04:19.482Z,80.50
2022-12-03T13:07:22.690Z,81.49
2022-12-03T13:10:33.101Z,80.38
2022-12-03T13:13:44.037Z,81.20
2022-12-03T13:16:49.108Z,81.27
2022-12-03T13:20:05.197Z,80.89
2022-12-03T13:23:26.343Z,80.79
2022-12-03T13:26:38.964Z,82.13
2022-12-03T13:29:41.939Z,82.37
2022-12-03T13:32:44.850Z,82.07
2022-12-03T13:35:47.961Z,82.29
2022-12-03T13:38:51.102Z,81.35
2022-12-03T13:42:13.654Z,81.52
2022-12-03T13:45:16.401Z,83.53
2022-12-03T13:48:25.722Z,82.78
2022-12-03T13:51:35.495Z,83.52
2022-12-03T13:54:39.451Z,82.92
2022-12-03T13:57:42.512Z,82.97
2022-12-03T14:00:45.999Z,83.51
2022-12-03T14:03:51.550Z,84.04
2022-12-03T14:06:56.593Z,83.71
2022-12-03T14:09:59.443Z,84.37
2022-12-03T14:13:02.184Z,84.49
2022-12-03T14:16:05.519Z,85.31
2022-12-03T14:19:09.983Z,86.50
2022-12-03T14:22:13.150Z,86.09
2022-12-03T14:25:16.022Z,87.37
2022-12-03T14:28:18.950Z,87.37
2022-12-03T14:31:21.709Z,87.23
2022-12-03T14:34:24.781Z,88.63
2022-12-03T14:37:27.287Z,88.53
2022-12-03T14:40:30.149Z,88.10
2022-12-03T14:43:33.104Z,87.69
2022-12-03T14:46:36.570Z,88.46
2022-12-03T14:49:39.561Z,89.16
2022-12-03T14:52:43.375Z,90.06
2022-12-03T14:55:48.136Z,90.71
2022-12-03T14:58:51.495Z,90.48
2022-12-03T15:01:57.980Z,90.10
2022-12-03T15:05:01.965Z,90.12
2022-12-03T15:08:11.183Z,90.75
2022-12-03T15:11:22.657Z,91.05
2022-12-03T15:14:25.485Z,92.11
2022-12-03T15:17:31.986Z,91.47
2022-12-03T15:20:35.652Z,92.14
2022-12-03T15:23:38.885Z,91.75
2022-12-03T15:26:41.486Z,92.37
2022-12-03T15:29:44.297Z,93.74
2022-12-03T15:32:47.661Z,92.70
2022-12-03T15:35:50.826Z,93.27
2022-12-03T15:38:53.631Z,94.20
2022-12-03T15:41:56.804Z,95.57
2022-12-03T15:44:59.357Z,95.20
2022-12-03T15:48:03.107Z,96.79
2022-12-03T15:51:07.089Z,95.63
2022-12-03T15:54:12.387Z,96.48
2022-12-03T15:57:15.729Z,98.11
2022-12-03T16:00:21.456Z,97.47
2022-12-03T16:03:24.479Z,98.97
2022-12-03T16:06:29.656Z,98.33
2022-12-03T16:09:35.941Z,98.45
2022-12-03T16:12:38.572Z,99.52
2022-12-03T16:15:41.941Z,99.25
2022-12-03T16:18:45.101Z,99.90
2022-12-03T16:21:47.972Z,100.00
2022-12-03T16:24:50.743Z,100.00
2022-12-03T16:27:53.528Z,100.00
2022-12-03T16:30:56.090Z,100.00
2022-12-03T16:33:59.871Z,100.00
2022-12-03T16:37:05.086Z,100.00
2022-12-03T16:40:20.088Z,100.00
2022-12-03T16:43:23.151Z,100.00
2022-12-03T16:46:30.247Z,100.00
2022-12-03T16:49:33.177Z,100.00
2022-12-03T16:52:36.112Z,100.00
2022-12-03T16:55:39.012Z,100.00
2022-12-03T16:58:42.916Z,100.00
2022-12-03T17:01:45.514Z,100.00
2022-12-03T17:04:48.824Z,100.00
2022-12-03T17:07:51.664Z,100.00
2022-12-03T17:10:54.594Z,100.00
2022-12-03T17:13:57.431Z,100.00
2022-12-03T17:17:00.687Z,100.00
2022-12-03T17:20:06.367Z,100.00
2022-12-03T17:23:10.477Z,100.00
2022-12-03T17:26:13.024Z,100.00
2022-12-03T17:29:16.173Z,100.00
2022-12-03T17:32:18.759Z,100.00
2022-12-03T17:35:22.095Z,100.00
2022-12-03T17:38:33.990Z,100.00
2022-12-03T17:41:47.358Z,100.00
2022-12-03T17:44:51.186Z,100.00
2022-12-03T17:47:54.168Z,100.00
2022-12-03T17:51:01.529Z,100.00
2022-12-03T17:54:05.101Z,100.00
2022-12-03T17:57:07.890Z,100.00
2022-12-03T18:00:14.970Z,100.00
2022-12-03T18:03:18.287Z,100.00
2022-12-03T18:06:23.892Z,100.00
2022-12-03T18:09:28.212Z,100.00
2022-12-03T18:12:30.917Z,100.00
2022-12-03T18:15:36.872Z,100.00
2022-12-03T18:18:55.024Z,100.00
2022-12-03T18:22:02.610Z,100.00
2022-12-03T18:25:07.388Z,100.00
2022-12-03T18:28:10.964Z,100.00
2022-12-03T18:31:15.508Z,100.00
2022-12-03T18:34:19.506Z,100.00
2022-12-03T18:37:27.066Z,100.00
2022-12-03T18:40:32.432Z,100.00
2022-12-03T18:43:35.363Z,100.00
2022-12-03T18:46:53.002Z,100.00
2022-12-03T18:49:59.674Z,100.00
2022-12-03T18:53:03.298Z,100.00
2022-12-03T18:56:07.977Z,100.00
2022-12-03T18:59:11.395Z,100.00
2022-12-03T19:02:32.477Z,100.00
2022-12-03T19:05:40.746Z,100.00
2022-12-03T19:08:45.128Z,100.00
2022-12-03T19:11:48.876Z,100.00
2022-12-03T19:14:51.862Z,100.00
2022-12-03T19:18:00.861Z,100.00
2022-12-03T19:21:09.068Z,100.00
2022-12-03T19:24:27.532Z,100.00
2022-12-03T19:27:32.148Z,100.00
2022-12-03T19:30:38.050Z,100.00
2022-12-03T19:33:42.640Z,100.00
2022-12-03T19:36:47.503Z,100.00
2022-12-03T19:39:54.215Z,100.00
2022-12-03T19:42:59.927Z,100.00
2022-12-03T19:46:12.355Z,100.00
2022-12-03T19:49:18.702Z,100.00
2022-12-03T19:52:25.463Z,100.00
2022-12-03T19:55:28.649Z,100.00
2022-12-03T19:58:31.833Z,100.00
2022-12-03T20:01:36.568Z,100.00
2022-12-03T20:04:39.846Z,100.00
2022-12-03T20:07:42.897Z,100.00
2022-12-03T20:10:46.511Z,100.00
2022-12-03T20:13:54.097Z,100.00
2022-12-03T20:16:57.316Z,100.00
2022-12-03T20:20:00.182Z,100.00
2022-12-03T20:23:03.895Z,100.00
2022-12-03T20:26:09.107Z,100.00
2022-12-03T20:29:12.550Z,100.00
2022-12-03T20:32:15.376Z,100.00
2022-12-03T20:35:18.424Z,100.00
2022-12-03T20:38:22.497Z,100.00
2022-12-03T20:41:25.879Z,100.00
2022-12-03T20:44:28.627Z,100.00
2022-12-03T20:47:32.578Z,100.00
2022-12-03T20:50:39.851Z,100.00
2022-12-03T20:53:43.733Z,100.00
2022-12-03T20:56:47.442Z,100.00
2022-12-03T20:59:54.721Z,100.00
2022-12-03T21:02:57.796Z,100.00
2022-12-03T21:06:01.710Z,100.00
2022-12-03T21:09:08.702Z,100.00
2022-12-03T21:12:11.993Z,100.00
2022-12-03T21:15:14.754Z,100.00
2022-12-03T21:18:17.821Z,100.00
2022-12-03T21:21:20.717Z,100.00
2022-12-03T21:24:23.716Z,100.00
2022-12-03T21:27:26.583Z,100.00
2022-12-03T21:30:36.633Z,100.00
2022-12-03T21:33:39.733Z,100.00
2022-12-03T21:36:43.291Z,100.00
2022-12-03T21:39:45.786Z,100.00
2022-12-03T21:42:48.940Z,100.00
2022-12-03T21:45:52.501Z,100.00
2022-12-03T21:48:56.019Z,100.00
2022-12-03T21:51:59.821Z,100.00
2022-12-03T21:55:02.792Z,100.00
2022-12-03T21:58:05.357Z,100.00
2022-12-03T22:01:18.351Z,100.00
2022-12-03T22:04:21.629Z,100.00
2022-12-03T22:07:24.156Z,100.00
2022-12-03T22:10:27.749Z,100.00
2022-12-03T22:13:30.285Z,100.00
2022-12-03T22:16:34.332Z,100.00
2022-12-03T22:19:36.968Z,100.00
2022-12-03T22:22:40.019Z,100.00
2022-12-03T22:25:42.695Z,100.00
2022-12-03T22:28:47.697Z,100.00
2022-12-03T22:31:50.537Z,100.00
2022-12-03T22:34:54.334Z,100.00
2022-12-03T22:37:56.978Z,100.00
2022-12-03T22:41:00.133Z,100.00
2022-12-03T22:44:02.943Z,100.00
2022-12-03T22:47:06.242Z,100.00
2022-12-03T22:50:09.166Z,100.00
2022-12-03T22:53:12.796Z,100.00
2022-12-03T22:56:16.057Z,100.00
2022-12-03T22:59:19.022Z,100.00
2022-12-03T23:02:21.611Z,100.00
2022-12-03T23:05:24.548Z,100.00
2022-12-03T23:08:29.897Z,100.00
2022-12-03T23:11:34.258Z,100.00
2022-12-03T23:14:37.201Z,100.00
2022-12-03T23:17:40.207Z,100.00
2022-12-03T23:20:45.074Z,100.00
2022-12-03T23:23:48.006Z,100.00
2022-12-03T23:26:50.647Z,100.00
2022-12-03T23:29:53.703Z,100.00
2022-12-03T23:32:56.591Z,100.00
2022-12-03T23:36:00.136Z,100.00
2022-12-03T23:39:03.091Z,100.00
2022-12-03T23:42:05.944Z,100.00
2022-12-03T23:45:09.404Z,100.00
2022-12-03T23:48:13.280Z,100.00
2022-12-03T23:51:21.781Z,100.00
2022-12-03T23:54:24.592Z,100.00
2022-12-03T23:57:27.409Z,100.00
